createdAt,value
2023-01-13T00:01:29.368Z,10.40
2023-01-13T00:04:01.119Z,10.40
2023-01-13T00:06:29.688Z,10.40
2023-01-13T00:08:57.840Z,10.30
2023-01-13T00:11:26.286Z,10.40
2023-01-13T00:13:53.378Z,10.40
2023-01-13T00:16:21.326Z,10.30
2023-01-13T00:18:49.149Z,10.30
2023-01-13T00:21:18.625Z,10.30
2023-01-13T00:23:45.744Z,10.30
2023-01-13T00:26:28.178Z,10.20
2023-01-13T00:28:59.350Z,10.20
2023-01-13T00:31:27.972Z,10.10
2023-01-13T00:33:57.510Z,10.10
2023-01-13T00:36:25.900Z,10.10
2023-01-13T00:38:58.977Z,10.10
2023-01-13T00:41:49.340Z,10.10
2023-01-13T00:44:16.412Z,10.10
2023-01-13T00:46:44.381Z,10.10
2023-01-13T00:49:11.821Z,10.10
2023-01-13T00:51:40.381Z,10.10
2023-01-13T00:54:07.858Z,10.00
2023-01-13T00:56:40.250Z,9.90
2023-01-13T00:59:12.566Z,9.90
2023-01-13T01:01:41.281Z,9.90
2023-01-13T01:04:08.277Z,9.90
2023-01-13T01:06:37.321Z,9.90
2023-01-13T01:09:07.366Z,9.90
2023-01-13T01:11:34.988Z,9.80
2023-01-13T01:14:03.406Z,9.80
2023-01-13T01:16:33.042Z,9.70
2023-01-13T01:19:01.008Z,9.70
2023-01-13T01:21:28.989Z,9.60
2023-01-13T01:24:00.357Z,9.60
2023-01-13T01:26:29.073Z,9.60
2023-01-13T01:28:59.926Z,9.50
2023-01-13T01:31:31.894Z,9.50
2023-01-13T01:34:00.143Z,9.50
2023-01-13T01:36:30.245Z,9.50
2023-01-13T01:39:00.197Z,9.40
2023-01-13T01:41:31.862Z,9.40
2023-01-13T01:44:08.667Z,9.40
2023-01-13T01:46:41.905Z,9.40
2023-01-13T01:49:13.930Z,9.30
2023-01-13T01:52:10.858Z,9.20
2023-01-13T01:55:03.139Z,9.10
2023-01-13T01:57:38.524Z,9.10
2023-01-13T02:00:08.300Z,9.10
2023-01-13T02:02:48.220Z,9.10
2023-01-13T02:05:17.804Z,9.00
2023-01-13T02:07:49.528Z,9.00
2023-01-13T02:10:21.707Z,9.00
2023-01-13T02:12:49.693Z,9.00
2023-01-13T02:15:45.979Z,8.90
2023-01-13T02:18:30.233Z,8.90
2023-01-13T02:21:03.810Z,8.90
2023-01-13T02:24:23.855Z,8.90
2023-01-13T02:26:59.905Z,8.90
2023-01-13T02:30:26.517Z,8.90
2023-01-13T02:33:26.497Z,8.90
2023-01-13T02:36:18.021Z,8.90
2023-01-13T02:38:58.474Z,8.90
2023-01-13T02:41:53.884Z,8.90
2023-01-13T02:44:25.266Z,9.00
2023-01-13T02:46:59.923Z,9.00
2023-01-13T02:49:45.133Z,9.00
2023-01-13T02:52:36.670Z,9.00
2023-01-13T02:55:09.511Z,9.10
2023-01-13T02:57:41.484Z,9.10
2023-01-13T03:00:12.203Z,9.10
2023-01-13T03:02:39.570Z,9.10
2023-01-13T03:05:07.031Z,9.10
2023-01-13T03:07:55.847Z,9.10
2023-01-13T03:10:35.171Z,9.10
2023-01-13T03:13:20.887Z,9.10
2023-01-13T03:16:16.646Z,9.10
2023-01-13T03:18:52.412Z,9.10
2023-01-13T03:21:51.517Z,9.20
2023-01-13T03:24:28.264Z,9.20
2023-01-13T03:27:23.267Z,9.20
2023-01-13T03:29:59.147Z,9.20
2023-01-13T03:32:39.031Z,9.20
2023-01-13T03:35:31.379Z,9.20
2023-01-13T03:38:18.313Z,9.20
2023-01-13T03:40:54.442Z,9.30
2023-01-13T03:43:46.629Z,9.30
2023-01-13T03:46:35.259Z,9.20
2023-01-13T03:49:05.827Z,9.20
2023-01-13T03:51:34.792Z,9.10
2023-01-13T03:54:09.532Z,9.10
2023-01-13T03:56:51.592Z,9.20
2023-01-13T03:59:24.066Z,9.10
2023-01-13T04:02:00.263Z,9.10
2023-01-13T04:04:35.510Z,9.10
2023-01-13T04:07:27.033Z,9.10
2023-01-13T04:09:58.136Z,9.20
2023-01-13T04:12:51.394Z,9.10
2023-01-13T04:15:21.978Z,9.10
2023-01-13T04:17:50.206Z,9.20
2023-01-13T04:20:17.498Z,9.20
2023-01-13T04:22:44.428Z,9.10
2023-01-13T04:25:12.176Z,9.10
2023-01-13T04:27:39.025Z,9.10
2023-01-13T04:30:07.252Z,9.10
2023-01-13T04:32:34.687Z,9.10
2023-01-13T04:35:03.945Z,9.10
2023-01-13T04:37:31.018Z,9.20
2023-01-13T04:39:59.647Z,9.10
2023-01-13T04:42:26.630Z,9.10
2023-01-13T04:44:53.879Z,9.10
2023-01-13T04:47:20.690Z,9.10
2023-01-13T04:49:48.736Z,9.10
2023-01-13T04:52:15.684Z,9.10
2023-01-13T04:54:42.541Z,9.20
2023-01-13T04:57:09.498Z,9.00
2023-01-13T04:59:37.513Z,9.00
2023-01-13T05:02:08.479Z,9.00
2023-01-13T05:04:36.070Z,8.90
2023-01-13T05:07:02.963Z,8.90
2023-01-13T05:09:29.990Z,8.80
2023-01-13T05:12:17.085Z,8.80
2023-01-13T05:15:02.434Z,8.70
2023-01-13T05:17:31.730Z,8.70
2023-01-13T05:19:59.688Z,8.80
2023-01-13T05:22:46.937Z,8.70
2023-01-13T05:25:23.068Z,8.60
2023-01-13T05:27:50.528Z,8.60
2023-01-13T05:30:19.314Z,8.50
2023-01-13T05:32:47.391Z,8.50
2023-01-13T05:35:16.071Z,8.50
2023-01-13T05:37:44.374Z,8.40
2023-01-13T05:40:31.257Z,8.40
2023-01-13T05:43:21.009Z,8.30
2023-01-13T05:45:50.693Z,8.30
2023-01-13T05:48:19.239Z,8.30
2023-01-13T05:50:46.721Z,8.30
2023-01-13T05:53:20.381Z,8.40
2023-01-13T05:55:48.716Z,8.40
2023-01-13T05:58:19.988Z,8.40
2023-01-13T06:00:49.110Z,8.40
2023-01-13T06:03:22.384Z,8.40
2023-01-13T06:05:51.424Z,8.40
2023-01-13T06:08:26.400Z,8.40
2023-01-13T06:10:58.694Z,8.40
2023-01-13T06:13:28.599Z,8.40
2023-01-13T06:15:59.582Z,8.40
2023-01-13T06:18:29.870Z,8.30
2023-01-13T06:20:59.388Z,8.30
2023-01-13T06:23:29.465Z,8.40
2023-01-13T06:26:12.189Z,8.30
2023-01-13T06:28:40.030Z,8.30
2023-01-13T06:31:08.806Z,8.30
2023-01-13T06:33:44.343Z,8.30
2023-01-13T06:36:20.507Z,8.40
2023-01-13T06:38:54.228Z,8.30
2023-01-13T06:41:47.846Z,8.30
2023-01-13T06:44:16.620Z,8.30
2023-01-13T06:50:17.202Z,8.30
2023-01-13T06:52:46.336Z,8.40
2023-01-13T06:55:14.514Z,8.30
2023-01-13T06:57:55.474Z,8.40
2023-01-13T07:00:29.568Z,8.40
2023-01-13T07:03:09.062Z,8.40
2023-01-13T07:05:37.145Z,8.40
2023-01-13T07:08:08.792Z,8.50
2023-01-13T07:10:41.338Z,8.40
2023-01-13T07:13:28.734Z,8.40
2023-01-13T07:15:59.405Z,8.50
2023-01-13T07:18:31.656Z,8.40
2023-01-13T07:21:09.373Z,8.40
2023-01-13T07:23:39.592Z,8.30
2023-01-13T07:26:10.247Z,8.30
2023-01-13T07:28:42.300Z,8.30
2023-01-13T07:31:18.614Z,8.30
2023-01-13T07:33:52.713Z,8.30
2023-01-13T07:36:19.814Z,8.20
2023-01-13T07:38:48.264Z,8.20
2023-01-13T07:41:34.922Z,8.10
2023-01-13T07:44:05.142Z,8.10
2023-01-13T07:46:35.940Z,8.10
2023-01-13T07:49:06.545Z,8.00
2023-01-13T07:51:37.320Z,8.00
2023-01-13T07:54:05.719Z,8.00
2023-01-13T07:56:33.028Z,8.00
2023-01-13T07:59:00.983Z,8.10
2023-01-13T08:01:29.098Z,8.10
2023-01-13T08:04:00.418Z,8.00
2023-01-13T08:06:30.935Z,8.00
2023-01-13T08:08:59.507Z,8.10
2023-01-13T08:11:27.639Z,8.10
2023-01-13T08:13:59.290Z,8.10
2023-01-13T08:16:28.837Z,8.20
2023-01-13T08:18:59.126Z,8.20
2023-01-13T08:21:27.081Z,8.20
2023-01-13T08:23:55.164Z,8.30
2023-01-13T08:26:23.407Z,8.30
2023-01-13T08:28:51.670Z,8.30
2023-01-13T08:31:20.544Z,8.30
2023-01-13T08:33:51.675Z,8.30
2023-01-13T08:36:21.246Z,8.20
2023-01-13T08:38:48.477Z,8.30
2023-01-13T08:41:40.223Z,8.30
2023-01-13T08:44:09.474Z,8.30
2023-01-13T08:46:37.069Z,8.40
2023-01-13T08:49:07.458Z,8.50
2023-01-13T08:51:36.279Z,8.50
2023-01-13T08:54:04.756Z,8.60
2023-01-13T08:59:20.945Z,8.50
2023-01-13T09:01:51.632Z,8.50
2023-01-13T09:04:32.510Z,8.50
2023-01-13T09:06:59.718Z,8.50
2023-01-13T09:09:28.013Z,8.60
2023-01-13T09:12:25.125Z,8.50
2023-01-13T09:14:53.041Z,8.50
2023-01-13T09:17:21.285Z,8.60
2023-01-13T09:20:03.120Z,8.60
2023-01-13T09:22:36.804Z,8.60
2023-01-13T09:25:04.969Z,8.70
2023-01-13T09:27:34.584Z,8.70
2023-01-13T09:30:10.634Z,8.80
2023-01-13T09:32:38.893Z,8.80
2023-01-13T09:35:09.966Z,8.80
2023-01-13T09:37:41.485Z,8.80
2023-01-13T09:40:17.946Z,8.90
2023-01-13T09:43:22.415Z,9.00
2023-01-13T09:46:06.312Z,9.00
2023-01-13T09:51:41.852Z,9.20
2023-01-13T09:54:22.631Z,9.20
2023-01-13T09:56:53.843Z,9.30
2023-01-13T09:59:21.717Z,9.30
2023-01-13T10:01:59.580Z,9.20
2023-01-13T10:04:29.719Z,9.30
2023-01-13T10:07:03.723Z,9.30
2023-01-13T10:09:51.731Z,9.20
2023-01-13T10:12:45.990Z,9.30
2023-01-13T10:15:35.862Z,9.40
2023-01-13T10:18:18.274Z,9.40
2023-01-13T10:21:02.790Z,9.40
2023-01-13T10:23:52.422Z,9.40
2023-01-13T10:26:42.641Z,9.40
2023-01-13T10:29:26.872Z,9.40
2023-01-13T10:31:59.203Z,9.30
2023-01-13T10:34:39.850Z,9.40
2023-01-13T10:37:07.946Z,9.40
2023-01-13T10:40:51.116Z,9.50
2023-01-13T10:44:11.379Z,9.40
2023-01-13T10:47:02.233Z,9.40
2023-01-13T10:49:39.837Z,9.50
2023-01-13T10:52:43.518Z,9.60
2023-01-13T10:55:31.071Z,9.70
2023-01-13T10:58:11.320Z,9.90
2023-01-13T11:00:38.448Z,9.90
2023-01-13T11:03:23.658Z,9.80
2023-01-13T11:05:58.666Z,9.90
2023-01-13T11:08:32.095Z,10.00
2023-01-13T11:11:00.665Z,9.90
2023-01-13T11:13:36.211Z,9.70
2023-01-13T11:16:18.090Z,9.60
2023-01-13T11:19:14.827Z,9.60
2023-01-13T11:21:58.479Z,9.30
2023-01-13T11:24:37.266Z,9.30
2023-01-13T11:27:36.770Z,9.40
2023-01-13T11:30:20.518Z,9.40
2023-01-13T11:33:15.932Z,9.30
2023-01-13T11:35:56.178Z,9.40
2023-01-13T11:38:51.275Z,9.40
2023-01-13T11:42:11.813Z,9.40
2023-01-13T11:44:49.358Z,9.50
2023-01-13T11:47:24.450Z,9.70
2023-01-13T11:49:55.613Z,9.60
2023-01-13T11:52:47.855Z,9.60
2023-01-13T11:55:35.675Z,9.60
2023-01-13T11:58:19.363Z,9.70
2023-01-13T12:01:08.524Z,10.00
2023-01-13T12:04:19.448Z,9.90
2023-01-13T12:06:50.130Z,10.00
2023-01-13T12:09:35.927Z,10.10
2023-01-13T12:12:44.604Z,10.30
2023-01-13T12:15:45.620Z,10.30
2023-01-13T12:18:40.604Z,10.40
2023-01-13T12:21:21.098Z,10.30
2023-01-13T12:24:20.491Z,10.40
2023-01-13T12:27:05.926Z,10.20
2023-01-13T12:29:40.639Z,10.30
2023-01-13T12:32:21.053Z,10.30
2023-01-13T12:35:03.024Z,10.30
2023-01-13T12:37:45.606Z,10.20
2023-01-13T12:40:34.746Z,10.30
2023-01-13T12:43:48.985Z,10.10
2023-01-13T12:46:19.277Z,10.30
2023-01-13T12:48:56.963Z,10.30
2023-01-13T12:51:44.786Z,10.30
2023-01-13T12:54:45.583Z,10.40
2023-01-13T12:57:27.260Z,10.60
2023-01-13T13:00:04.522Z,10.50
2023-01-13T13:03:08.463Z,10.40
2023-01-13T13:06:16.034Z,10.60
2023-01-13T13:09:21.293Z,10.70
2023-01-13T13:11:59.309Z,10.80
2023-01-13T13:14:41.696Z,10.80
2023-01-13T13:17:19.974Z,10.70
2023-01-13T13:19:49.924Z,10.70
2023-01-13T13:22:44.692Z,10.60
2023-01-13T13:25:26.973Z,10.70
2023-01-13T13:28:22.021Z,10.70
2023-01-13T13:31:32.718Z,10.60
2023-01-13T13:34:08.873Z,10.70
2023-01-13T13:37:02.005Z,10.70
2023-01-13T13:39:54.288Z,10.80
2023-01-13T13:42:43.847Z,10.90
2023-01-13T13:45:40.168Z,10.80
2023-01-13T13:48:30.748Z,10.90
2023-01-13T13:51:05.578Z,10.80
2023-01-13T13:53:42.554Z,10.80
2023-01-13T13:56:21.933Z,10.80
2023-01-13T13:58:52.465Z,10.80
2023-01-13T14:01:27.829Z,10.90
2023-01-13T14:04:11.828Z,10.90
2023-01-13T14:06:57.556Z,10.90
2023-01-13T14:09:28.884Z,10.90
2023-01-13T14:12:04.690Z,10.90
2023-01-13T14:14:31.963Z,10.90
2023-01-13T14:17:00.904Z,11.00
2023-01-13T14:19:44.128Z,11.10
2023-01-13T14:22:21.392Z,10.80
2023-01-13T14:24:55.324Z,10.80
2023-01-13T14:27:26.799Z,10.90
2023-01-13T14:29:59.023Z,10.80
2023-01-13T14:32:46.048Z,10.80
2023-01-13T14:35:19.503Z,10.90
2023-01-13T14:37:49.887Z,10.90
2023-01-13T14:40:44.798Z,10.90
2023-01-13T14:43:16.538Z,10.90
2023-01-13T14:46:04.381Z,11.00
2023-01-13T14:48:37.098Z,10.90
2023-01-13T14:51:14.119Z,10.90
2023-01-13T14:53:54.663Z,10.90
2023-01-13T14:56:41.693Z,11.00
2023-01-13T14:59:46.276Z,11.00
2023-01-13T15:02:27.792Z,10.90
2023-01-13T15:04:59.279Z,10.80
2023-01-13T15:07:32.019Z,10.90
2023-01-13T15:10:04.068Z,10.70
2023-01-13T15:12:39.783Z,10.70
2023-01-13T15:15:29.285Z,10.70
2023-01-13T15:18:04.154Z,10.80
2023-01-13T15:20:38.902Z,10.80
2023-01-13T15:23:10.197Z,10.80
2023-01-13T15:25:45.018Z,10.90
2023-01-13T15:28:22.376Z,10.80
2023-01-13T15:30:50.903Z,10.70
2023-01-13T15:33:18.976Z,10.70
2023-01-13T15:35:54.311Z,10.60
2023-01-13T15:38:23.509Z,10.60
2023-01-13T15:41:38.147Z,10.50
2023-01-13T15:44:23.970Z,10.40
2023-01-13T15:46:56.715Z,10.40
2023-01-13T15:49:35.317Z,10.20
2023-01-13T15:52:27.003Z,10.00
2023-01-13T15:54:55.489Z,10.10
2023-01-13T15:57:30.745Z,10.10
2023-01-13T16:00:04.360Z,10.10
2023-01-13T16:02:34.810Z,10.10
2023-01-13T16:05:03.171Z,10.20
2023-01-13T16:07:30.753Z,10.10
2023-01-13T16:10:01.868Z,10.10
2023-01-13T16:12:29.419Z,10.10
2023-01-13T16:14:59.661Z,10.10
2023-01-13T16:17:32.742Z,10.10
2023-01-13T16:20:02.786Z,10.00
2023-01-13T16:22:30.298Z,10.00
2023-01-13T16:25:07.295Z,10.00
2023-01-13T16:27:40.348Z,9.90
2023-01-13T16:30:23.115Z,10.10
2023-01-13T16:32:50.648Z,9.80
2023-01-13T16:35:19.420Z,9.70
2023-01-13T16:37:49.509Z,9.70
2023-01-13T16:40:33.650Z,9.60
2023-01-13T16:43:04.598Z,9.50
2023-01-13T16:45:57.130Z,9.50
2023-01-13T16:48:29.222Z,9.40
2023-01-13T16:50:56.523Z,9.50
2023-01-13T16:53:23.999Z,9.50
2023-01-13T16:55:54.662Z,9.50
2023-01-13T16:58:27.517Z,9.30
2023-01-13T17:00:56.227Z,9.30
2023-01-13T17:03:24.546Z,9.20
2023-01-13T17:05:55.306Z,9.30
2023-01-13T17:08:26.545Z,9.20
2023-01-13T17:10:54.714Z,9.30
2023-01-13T17:13:22.446Z,9.20
2023-01-13T17:15:58.087Z,9.20
2023-01-13T17:18:27.527Z,9.10
2023-01-13T17:21:00.960Z,9.00
2023-01-13T17:23:34.677Z,9.10
2023-01-13T17:26:05.195Z,9.00
2023-01-13T17:28:38.075Z,9.00
2023-01-13T17:31:07.072Z,9.00
2023-01-13T17:34:06.844Z,9.00
2023-01-13T17:36:40.770Z,9.00
2023-01-13T17:39:08.272Z,9.00
2023-01-13T17:41:37.301Z,9.00
2023-01-13T17:44:09.207Z,9.00
2023-01-13T17:46:42.664Z,9.00
2023-01-13T17:49:20.876Z,9.10
2023-01-13T17:51:51.483Z,9.10
2023-01-13T17:54:23.329Z,9.10
2023-01-13T17:56:57.045Z,9.00
2023-01-13T17:59:52.227Z,9.00
2023-01-13T18:02:20.596Z,9.00
2023-01-13T18:04:48.869Z,9.10
2023-01-13T18:07:35.124Z,9.10
2023-01-13T18:10:06.427Z,9.00
2023-01-13T18:12:37.580Z,9.10
2023-01-13T18:15:05.281Z,9.00
2023-01-13T18:17:33.375Z,9.10
2023-01-13T18:20:19.096Z,9.00
2023-01-13T18:23:13.294Z,9.00
2023-01-13T18:26:00.363Z,9.00
2023-01-13T18:28:28.361Z,9.00
2023-01-13T18:30:55.712Z,9.00
2023-01-13T18:33:27.928Z,9.00
2023-01-13T18:36:05.973Z,9.00
2023-01-13T18:41:37.504Z,8.80
2023-01-13T18:44:08.497Z,8.90
2023-01-13T18:46:36.657Z,8.90
2023-01-13T18:49:07.106Z,8.90
2023-01-13T18:51:39.700Z,8.90
2023-01-13T18:54:13.983Z,9.00
2023-01-13T18:56:43.760Z,8.90
2023-01-13T18:59:14.561Z,8.90
2023-01-13T19:01:44.679Z,8.90
2023-01-13T19:04:17.145Z,8.90
2023-01-13T19:06:51.847Z,8.90
2023-01-13T19:09:28.992Z,8.90
2023-01-13T19:11:59.887Z,8.80
2023-01-13T19:14:37.870Z,8.80
2023-01-13T19:17:16.254Z,8.80
2023-01-13T19:19:52.888Z,8.70
2023-01-13T19:22:27.346Z,8.70
2023-01-13T19:24:55.314Z,8.80
2023-01-13T19:27:24.079Z,8.80
2023-01-13T19:29:57.681Z,8.80
2023-01-13T19:32:26.219Z,8.70
2023-01-13T19:34:55.159Z,8.70
2023-01-13T19:40:09.457Z,8.80
2023-01-13T19:43:02.975Z,8.80
2023-01-13T19:45:45.522Z,8.70
2023-01-13T19:48:16.387Z,8.80
2023-01-13T19:50:45.700Z,8.70
2023-01-13T19:53:18.172Z,8.80
2023-01-13T19:55:48.646Z,8.80
2023-01-13T19:58:16.552Z,8.80
2023-01-13T20:00:47.353Z,8.80
2023-01-13T20:03:21.723Z,8.70
2023-01-13T20:05:48.862Z,8.80
2023-01-13T20:08:21.273Z,8.70
2023-01-13T20:11:12.052Z,8.70
2023-01-13T20:13:41.135Z,8.70
2023-01-13T20:16:08.762Z,8.70
2023-01-13T20:18:36.759Z,8.70
2023-01-13T20:21:06.745Z,8.70
2023-01-13T20:23:36.380Z,8.70
2023-01-13T20:26:07.653Z,8.70
2023-01-13T20:28:38.991Z,8.70
2023-01-13T20:31:10.148Z,8.60
2023-01-13T20:33:40.077Z,8.60
2023-01-13T20:36:09.249Z,8.60
2023-01-13T20:38:39.062Z,8.60
2023-01-13T20:41:26.297Z,8.70
2023-01-13T20:43:53.716Z,8.70
2023-01-13T20:46:22.853Z,8.70
2023-01-13T20:48:51.134Z,8.60
2023-01-13T20:51:19.192Z,8.60
2023-01-13T20:53:46.248Z,8.50
2023-01-13T20:56:14.648Z,8.60
2023-01-13T20:58:45.270Z,8.50
2023-01-13T21:01:14.831Z,8.50
2023-01-13T21:03:42.334Z,8.50
2023-01-13T21:06:10.693Z,8.50
2023-01-13T21:08:39.843Z,8.50
2023-01-13T21:11:10.631Z,8.60
2023-01-13T21:13:57.075Z,8.50
2023-01-13T21:16:28.567Z,8.50
2023-01-13T21:19:10.536Z,8.50
2023-01-13T21:21:37.878Z,8.50
2023-01-13T21:24:05.614Z,8.40
2023-01-13T21:26:34.677Z,8.30
2023-01-13T21:29:04.236Z,8.40
2023-01-13T21:31:31.306Z,8.50
2023-01-13T21:33:59.452Z,8.40
2023-01-13T21:36:28.228Z,8.40
2023-01-13T21:38:59.762Z,8.40
2023-01-13T21:41:47.786Z,8.30
2023-01-13T21:44:37.156Z,8.20
2023-01-13T21:47:31.509Z,8.20
2023-01-13T21:50:02.046Z,8.20
2023-01-13T21:52:30.771Z,8.20
2023-01-13T21:55:19.755Z,8.20
2023-01-13T21:57:52.288Z,8.20
2023-01-13T22:00:20.389Z,8.20
2023-01-13T22:02:49.155Z,8.10
2023-01-13T22:05:18.859Z,8.20
2023-01-13T22:07:48.340Z,8.10
2023-01-13T22:10:22.461Z,8.10
2023-01-13T22:12:53.348Z,8.20
2023-01-13T22:15:20.620Z,8.20
2023-01-13T22:17:52.447Z,8.20
2023-01-13T22:20:20.293Z,8.10
2023-01-13T22:22:48.260Z,8.10
2023-01-13T22:25:16.749Z,8.10
2023-01-13T22:27:44.839Z,8.10
2023-01-13T22:30:21.900Z,8.10
2023-01-13T22:32:50.279Z,8.00
2023-01-13T22:35:17.438Z,8.10
2023-01-13T22:37:44.432Z,8.10
2023-01-13T22:40:12.977Z,8.00
2023-01-13T22:42:42.403Z,7.90
2023-01-13T22:45:13.387Z,7.90
2023-01-13T22:47:42.263Z,7.80
2023-01-13T22:50:20.847Z,7.90
2023-01-13T22:52:49.502Z,7.80
2023-01-13T22:55:17.081Z,7.80
2023-01-13T22:57:47.981Z,7.70
2023-01-13T23:00:19.357Z,7.70
2023-01-13T23:02:49.569Z,7.70
2023-01-13T23:05:16.631Z,7.70
2023-01-13T23:07:44.889Z,7.60
2023-01-13T23:10:12.024Z,7.60
2023-01-13T23:12:39.098Z,7.60
2023-01-13T23:15:07.032Z,7.60
2023-01-13T23:17:34.073Z,7.50
2023-01-13T23:20:02.287Z,7.50
2023-01-13T23:22:29.322Z,7.40
2023-01-13T23:24:57.194Z,7.40
2023-01-13T23:27:27.295Z,7.40
2023-01-13T23:29:56.163Z,7.40
2023-01-13T23:32:24.564Z,7.40
2023-01-13T23:34:54.653Z,7.40
2023-01-13T23:37:23.775Z,7.40
2023-01-13T23:39:52.819Z,7.50
2023-01-13T23:42:20.056Z,7.50
2023-01-13T23:44:47.144Z,7.50
2023-01-13T23:47:15.428Z,7.40
2023-01-13T23:49:42.513Z,7.40
2023-01-13T23:52:09.664Z,7.50
2023-01-13T23:54:37.807Z,7.40
2023-01-13T23:57:04.956Z,7.40
2023-01-13T23:59:32.936Z,7.50
